JBU2924 MDST-KBOS
Flight info
| Callsign | JBU2924 |
|---|---|
| Flight time | 3h 46m |
| Altitude | 29000 |
| Route | LERED2U LERED DCT WATRS/M073F290 DCT MACOR/M072F280 L455 MCOOP/M075F300 L455 SAVIK/N0452F300 DCT YAALE/N0457F310 Y495 MOUGH/N0449F300 Y495 OWENZ DCT SHERL/N0449F310 DCT ORCHA DCT ROBUC ROBUC3 |
| Aircraft | A21N/M-SDE2E3FGHIRWXY/LB1 |
Departure
| Time | 2026-05-07 17:36 |
|---|---|
| Airport | Cibao International Airport (MDST) |
Arrival
| Time | 2026-05-07 21:22 |
|---|---|
| Airport | Boston Logan International Airport (KBOS) |
| Time | Latitude | Longitude | Altitude | Speed | Heading |
|---|---|---|---|---|---|
| 2026-05-07 17:12 | 19.40252 | -70.60104 | 605 ft | 0 kts | 228° |
| 2026-05-07 17:25 | 19.40259 | -70.60097 | 606 ft | 2 kts | 222° |
| 2026-05-07 17:26 | 19.40269 | -70.60085 | 606 ft | 2 kts | 230° |
| 2026-05-07 17:26 | 19.40279 | -70.60073 | 606 ft | 2 kts | 227° |
| 2026-05-07 17:26 | 19.40289 | -70.60062 | 606 ft | 2 kts | 228° |
| 2026-05-07 17:26 | 19.40299 | -70.60049 | 607 ft | 2 kts | 228° |
| 2026-05-07 17:27 | 19.40309 | -70.60038 | 607 ft | 2 kts | 228° |
| 2026-05-07 17:27 | 19.40319 | -70.60026 | 607 ft | 2 kts | 228° |
| 2026-05-07 17:27 | 19.40327 | -70.60014 | 607 ft | 2 kts | 268° |
| 2026-05-07 17:27 | 19.40326 | -70.60006 | 607 ft | 1 kts | 289° |
| 2026-05-07 17:28 | 19.40324 | -70.60002 | 607 ft | 0 kts | 285° |
| 2026-05-07 17:30 | 19.40325 | -70.60004 | 607 ft | 2 kts | 285° |
| 2026-05-07 17:30 | 19.40333 | -70.60046 | 607 ft | 8 kts | 281° |
| 2026-05-07 17:31 | 19.40350 | -70.60128 | 607 ft | 13 kts | 283° |
| 2026-05-07 17:31 | 19.40379 | -70.60244 | 607 ft | 18 kts | 284° |
| 2026-05-07 17:31 | 19.40404 | -70.60374 | 608 ft | 14 kts | 280° |
| 2026-05-07 17:31 | 19.40457 | -70.60442 | 609 ft | 12 kts | 0° |
| 2026-05-07 17:32 | 19.40542 | -70.60426 | 610 ft | 12 kts | 10° |
| 2026-05-07 17:32 | 19.40602 | -70.60464 | 612 ft | 10 kts | 295° |
| 2026-05-07 17:32 | 19.40626 | -70.60546 | 612 ft | 12 kts | 282° |
| 2026-05-07 17:32 | 19.40639 | -70.60608 | 612 ft | 14 kts | 282° |
| 2026-05-07 17:33 | 19.40674 | -70.60777 | 611 ft | 19 kts | 281° |
| 2026-05-07 17:33 | 19.40702 | -70.60915 | 611 ft | 18 kts | 284° |
| 2026-05-07 17:33 | 19.40731 | -70.61043 | 612 ft | 17 kts | 283° |
| 2026-05-07 17:33 | 19.40760 | -70.61172 | 612 ft | 18 kts | 284° |
| 2026-05-07 17:34 | 19.40791 | -70.61305 | 612 ft | 18 kts | 283° |
| 2026-05-07 17:34 | 19.40819 | -70.61435 | 614 ft | 17 kts | 283° |
| 2026-05-07 17:34 | 19.40845 | -70.61552 | 615 ft | 15 kts | 282° |
| 2026-05-07 17:34 | 19.40843 | -70.61650 | 615 ft | 11 kts | 274° |
| 2026-05-07 17:35 | 19.40870 | -70.61655 | 615 ft | 5 kts | 82° |
| 2026-05-07 17:35 | 19.40867 | -70.61641 | 615 ft | 0 kts | 104° |
| 2026-05-07 17:35 | 19.40861 | -70.61617 | 615 ft | 22 kts | 104° |
| 2026-05-07 17:35 | 19.40770 | -70.61190 | 612 ft | 94 kts | 103° |
| 2026-05-07 17:36 | 19.40578 | -70.60322 | 612 ft | 150 kts | 103° |
| 2026-05-07 17:36 | 19.40309 | -70.59119 | 760 ft | 180 kts | 100° |
| 2026-05-07 17:36 | 19.40024 | -70.57836 | 1368 ft | 181 kts | 103° |
| 2026-05-07 17:36 | 19.39749 | -70.56559 | 2061 ft | 179 kts | 102° |
| 2026-05-07 17:37 | 19.39471 | -70.55301 | 2575 ft | 178 kts | 103° |
| 2026-05-07 17:37 | 19.39183 | -70.53979 | 2807 ft | 190 kts | 102° |
| 2026-05-07 17:37 | 19.38876 | -70.52580 | 3048 ft | 202 kts | 103° |
| 2026-05-07 17:37 | 19.38590 | -70.51073 | 3294 ft | 215 kts | 97° |
| 2026-05-07 17:38 | 19.38547 | -70.49424 | 3489 ft | 233 kts | 87° |
| 2026-05-07 17:38 | 19.38682 | -70.47670 | 3757 ft | 248 kts | 85° |
| 2026-05-07 17:38 | 19.38859 | -70.45798 | 4084 ft | 263 kts | 85° |
| 2026-05-07 17:38 | 19.39044 | -70.43876 | 4638 ft | 267 kts | 85° |
| 2026-05-07 17:39 | 19.39228 | -70.41915 | 5287 ft | 268 kts | 85° |
| 2026-05-07 17:39 | 19.39408 | -70.39964 | 5913 ft | 270 kts | 85° |
| 2026-05-07 17:39 | 19.39588 | -70.37982 | 6532 ft | 273 kts | 85° |
| 2026-05-07 17:39 | 19.39769 | -70.35972 | 7158 ft | 276 kts | 85° |
| 2026-05-07 17:40 | 19.39953 | -70.33928 | 7706 ft | 280 kts | 85° |
| 2026-05-07 17:40 | 19.40136 | -70.31887 | 7987 ft | 282 kts | 85° |
| 2026-05-07 17:40 | 19.40426 | -70.29813 | 7999 ft | 282 kts | 71° |
| 2026-05-07 17:40 | 19.41479 | -70.28076 | 8003 ft | 284 kts | 42° |
| 2026-05-07 17:41 | 19.43188 | -70.27055 | 8071 ft | 289 kts | 15° |
| 2026-05-07 17:41 | 19.45187 | -70.26969 | 8582 ft | 293 kts | 351° |
| 2026-05-07 17:41 | 19.47192 | -70.27383 | 9328 ft | 290 kts | 349° |
| 2026-05-07 17:41 | 19.49171 | -70.27776 | 9934 ft | 292 kts | 349° |
| 2026-05-07 17:42 | 19.51190 | -70.28167 | 10443 ft | 297 kts | 350° |
| 2026-05-07 17:42 | 19.53278 | -70.28565 | 10699 ft | 311 kts | 349° |
| 2026-05-07 17:42 | 19.55440 | -70.28976 | 10938 ft | 325 kts | 349° |
| 2026-05-07 17:42 | 19.57726 | -70.29409 | 11171 ft | 338 kts | 349° |
| 2026-05-07 17:43 | 19.60082 | -70.29856 | 11403 ft | 351 kts | 349° |
| 2026-05-07 17:43 | 19.62532 | -70.30321 | 11725 ft | 360 kts | 349° |
| 2026-05-07 17:43 | 19.65015 | -70.30791 | 12212 ft | 362 kts | 349° |
| 2026-05-07 17:43 | 19.67506 | -70.31265 | 12701 ft | 364 kts | 349° |
| 2026-05-07 17:44 | 19.69987 | -70.31735 | 13194 ft | 366 kts | 349° |
| 2026-05-07 17:44 | 19.72515 | -70.32217 | 13714 ft | 368 kts | 349° |
| 2026-05-07 17:44 | 19.75064 | -70.32701 | 14151 ft | 371 kts | 349° |
| 2026-05-07 17:44 | 19.77595 | -70.33182 | 14594 ft | 373 kts | 349° |
| 2026-05-07 17:45 | 19.80171 | -70.33673 | 15079 ft | 374 kts | 350° |
| 2026-05-07 17:45 | 19.82744 | -70.34163 | 15517 ft | 376 kts | 350° |
| 2026-05-07 17:45 | 19.85333 | -70.34656 | 15940 ft | 378 kts | 350° |
| 2026-05-07 17:45 | 19.87924 | -70.35149 | 16331 ft | 381 kts | 350° |
| 2026-05-07 17:46 | 19.90526 | -70.35644 | 16749 ft | 383 kts | 350° |
| 2026-05-07 17:46 | 19.93181 | -70.36150 | 17134 ft | 385 kts | 351° |
| 2026-05-07 17:46 | 19.95832 | -70.36656 | 17506 ft | 387 kts | 351° |
| 2026-05-07 17:46 | 19.98482 | -70.37161 | 17880 ft | 388 kts | 351° |
| 2026-05-07 17:47 | 20.01126 | -70.37665 | 18264 ft | 389 kts | 351° |
| 2026-05-07 17:47 | 20.03824 | -70.38179 | 18669 ft | 389 kts | 351° |
| 2026-05-07 17:47 | 20.06491 | -70.38687 | 19023 ft | 391 kts | 351° |
| 2026-05-07 17:47 | 20.09149 | -70.39195 | 19386 ft | 391 kts | 351° |
| 2026-05-07 17:48 | 20.11852 | -70.39713 | 19748 ft | 392 kts | 351° |
| 2026-05-07 17:48 | 20.14535 | -70.40225 | 20096 ft | 393 kts | 351° |
| 2026-05-07 17:48 | 20.17255 | -70.40745 | 20407 ft | 395 kts | 351° |
| 2026-05-07 17:48 | 20.19954 | -70.41262 | 20723 ft | 396 kts | 352° |
| 2026-05-07 17:49 | 20.22670 | -70.41782 | 21066 ft | 397 kts | 352° |
| 2026-05-07 17:49 | 20.25415 | -70.42308 | 21406 ft | 397 kts | 352° |
| 2026-05-07 17:49 | 20.28128 | -70.42827 | 21719 ft | 398 kts | 352° |
| 2026-05-07 17:49 | 20.30849 | -70.43349 | 22028 ft | 398 kts | 352° |
| 2026-05-07 17:50 | 20.33571 | -70.43864 | 22340 ft | 399 kts | 353° |
| 2026-05-07 17:50 | 20.36345 | -70.43957 | 22579 ft | 398 kts | 8° |
| 2026-05-07 17:50 | 20.39017 | -70.43149 | 22840 ft | 399 kts | 24° |
| 2026-05-07 17:50 | 20.41352 | -70.41561 | 23073 ft | 404 kts | 39° |
| 2026-05-07 17:51 | 20.43195 | -70.39291 | 23319 ft | 410 kts | 54° |
| 2026-05-07 17:51 | 20.44691 | -70.36711 | 23591 ft | 412 kts | 56° |
| 2026-05-07 17:51 | 20.46197 | -70.34074 | 23839 ft | 414 kts | 56° |
| 2026-05-07 17:51 | 20.47698 | -70.31443 | 24095 ft | 416 kts | 56° |
| 2026-05-07 17:52 | 20.49181 | -70.28843 | 24359 ft | 417 kts | 56° |
| 2026-05-07 17:52 | 20.50699 | -70.26186 | 24619 ft | 418 kts | 56° |
| 2026-05-07 17:52 | 20.52216 | -70.23529 | 24864 ft | 419 kts | 56° |
| 2026-05-07 17:52 | 20.53730 | -70.20878 | 25108 ft | 421 kts | 56° |
| 2026-05-07 17:53 | 20.55257 | -70.18204 | 25320 ft | 423 kts | 56° |
| 2026-05-07 17:53 | 20.56779 | -70.15542 | 25545 ft | 424 kts | 56° |
| 2026-05-07 17:53 | 20.58308 | -70.12860 | 25774 ft | 426 kts | 56° |
| 2026-05-07 17:53 | 20.59855 | -70.10151 | 25983 ft | 428 kts | 56° |
| 2026-05-07 17:54 | 20.61413 | -70.07416 | 26187 ft | 429 kts | 56° |
| 2026-05-07 17:54 | 20.62965 | -70.04693 | 26413 ft | 431 kts | 56° |
| 2026-05-07 17:54 | 20.64507 | -70.01984 | 26658 ft | 431 kts | 56° |
| 2026-05-07 17:54 | 20.66067 | -69.99242 | 26875 ft | 433 kts | 56° |
| 2026-05-07 17:55 | 20.67624 | -69.96509 | 27068 ft | 434 kts | 56° |
| 2026-05-07 17:55 | 20.69193 | -69.93751 | 27271 ft | 436 kts | 56° |
| 2026-05-07 17:55 | 20.70782 | -69.90958 | 27450 ft | 438 kts | 56° |
| 2026-05-07 17:55 | 20.72346 | -69.88204 | 27655 ft | 439 kts | 56° |
| 2026-05-07 17:56 | 20.73922 | -69.85429 | 27859 ft | 440 kts | 56° |
| 2026-05-07 17:56 | 20.75512 | -69.82628 | 28080 ft | 441 kts | 56° |
| 2026-05-07 17:56 | 20.77106 | -69.79813 | 28277 ft | 442 kts | 56° |
| 2026-05-07 17:56 | 20.78708 | -69.76990 | 28481 ft | 443 kts | 56° |
| 2026-05-07 17:57 | 20.80296 | -69.74185 | 28683 ft | 445 kts | 56° |
| 2026-05-07 17:57 | 20.81357 | -69.72308 | 28816 ft | 445 kts | 56° |
| 2026-05-07 17:57 | 20.83509 | -69.68507 | 29047 ft | 447 kts | 56° |
| 2026-05-07 17:57 | 20.85106 | -69.65684 | 29057 ft | 447 kts | 56° |
| 2026-05-07 17:58 | 20.88316 | -69.60007 | 29070 ft | 448 kts | 56° |
| 2026-05-07 17:58 | 20.91530 | -69.54312 | 29069 ft | 448 kts | 56° |
| 2026-05-07 17:59 | 20.94759 | -69.48590 | 29068 ft | 448 kts | 56° |
| 2026-05-07 17:59 | 20.97956 | -69.42917 | 29069 ft | 447 kts | 56° |
| 2026-05-07 18:00 | 21.01165 | -69.37206 | 29072 ft | 449 kts | 56° |
| 2026-05-07 18:00 | 21.04376 | -69.31494 | 29069 ft | 449 kts | 56° |
| 2026-05-07 18:01 | 21.07577 | -69.25806 | 29067 ft | 449 kts | 56° |
| 2026-05-07 18:01 | 21.10804 | -69.20053 | 29064 ft | 448 kts | 56° |
| 2026-05-07 18:02 | 21.15583 | -69.11523 | 29062 ft | 447 kts | 56° |
| 2026-05-07 18:03 | 21.18788 | -69.05797 | 29063 ft | 448 kts | 56° |
| 2026-05-07 18:03 | 21.21970 | -69.00105 | 29068 ft | 449 kts | 56° |
| 2026-05-07 18:04 | 21.25190 | -68.94340 | 29063 ft | 449 kts | 56° |
| 2026-05-07 18:04 | 21.28392 | -68.88602 | 29072 ft | 448 kts | 56° |
| 2026-05-07 18:05 | 21.31579 | -68.82881 | 29084 ft | 448 kts | 56° |
| 2026-05-07 18:05 | 21.34772 | -68.77149 | 29084 ft | 450 kts | 56° |
| 2026-05-07 18:06 | 21.37975 | -68.71390 | 29077 ft | 448 kts | 56° |
| 2026-05-07 18:06 | 21.41152 | -68.65672 | 29081 ft | 448 kts | 56° |
| 2026-05-07 18:07 | 21.44335 | -68.59937 | 29082 ft | 449 kts | 56° |
| 2026-05-07 18:07 | 21.47550 | -68.54137 | 29077 ft | 451 kts | 56° |
| 2026-05-07 18:08 | 21.50741 | -68.48379 | 29074 ft | 448 kts | 56° |
| 2026-05-07 18:08 | 21.53904 | -68.42664 | 29064 ft | 450 kts | 56° |
| 2026-05-07 18:09 | 21.57106 | -68.36867 | 29062 ft | 451 kts | 56° |
| 2026-05-07 18:09 | 21.60290 | -68.31097 | 29057 ft | 450 kts | 57° |
| 2026-05-07 18:10 | 21.63495 | -68.25291 | 29058 ft | 452 kts | 57° |
| 2026-05-07 18:10 | 21.66675 | -68.19515 | 29061 ft | 451 kts | 57° |
| 2026-05-07 18:11 | 21.69883 | -68.13689 | 29057 ft | 453 kts | 57° |
| 2026-05-07 18:11 | 21.73090 | -68.07853 | 29059 ft | 455 kts | 57° |
| 2026-05-07 18:12 | 21.76282 | -68.02036 | 29055 ft | 454 kts | 57° |
| 2026-05-07 18:12 | 21.79490 | -67.96187 | 29066 ft | 455 kts | 56° |
| 2026-05-07 18:13 | 21.82707 | -67.90309 | 29062 ft | 456 kts | 57° |
| 2026-05-07 18:13 | 21.85925 | -67.84422 | 29058 ft | 456 kts | 57° |
| 2026-05-07 18:14 | 21.89279 | -67.78697 | 29058 ft | 454 kts | 52° |
| 2026-05-07 18:14 | 21.93085 | -67.73301 | 29056 ft | 451 kts | 49° |
| 2026-05-07 18:15 | 21.96959 | -67.67999 | 29061 ft | 452 kts | 49° |
| 2026-05-07 18:15 | 22.00842 | -67.62676 | 29064 ft | 451 kts | 49° |
| 2026-05-07 18:16 | 22.04723 | -67.57346 | 29063 ft | 452 kts | 49° |
| 2026-05-07 18:16 | 22.08572 | -67.52047 | 29068 ft | 451 kts | 49° |
| 2026-05-07 18:17 | 22.12435 | -67.46725 | 29069 ft | 451 kts | 49° |
| 2026-05-07 18:17 | 22.16292 | -67.41404 | 29071 ft | 451 kts | 49° |
| 2026-05-07 18:18 | 22.20361 | -67.36310 | 29054 ft | 445 kts | 36° |
| 2026-05-07 18:18 | 22.22972 | -67.34581 | 29067 ft | 441 kts | 23° |
| 2026-05-07 18:18 | 22.25912 | -67.33604 | 29066 ft | 440 kts | 9° |
| 2026-05-07 18:18 | 22.28978 | -67.33437 | 29069 ft | 440 kts | 356° |
| 2026-05-07 18:19 | 22.31999 | -67.33940 | 29078 ft | 441 kts | 351° |
| 2026-05-07 18:19 | 22.38013 | -67.35172 | 29070 ft | 440 kts | 351° |
| 2026-05-07 18:20 | 22.44058 | -67.36417 | 29068 ft | 440 kts | 351° |
| 2026-05-07 18:20 | 22.50056 | -67.37646 | 29070 ft | 441 kts | 351° |
| 2026-05-07 18:21 | 22.56127 | -67.38895 | 29073 ft | 442 kts | 351° |
| 2026-05-07 18:21 | 22.62173 | -67.40134 | 29072 ft | 442 kts | 351° |
| 2026-05-07 18:22 | 22.68217 | -67.41376 | 29072 ft | 442 kts | 351° |
| 2026-05-07 18:22 | 22.74269 | -67.42620 | 29073 ft | 442 kts | 351° |
| 2026-05-07 18:23 | 22.80301 | -67.43858 | 29074 ft | 442 kts | 351° |
| 2026-05-07 18:23 | 22.86357 | -67.45106 | 29073 ft | 444 kts | 351° |
| 2026-05-07 18:24 | 22.92429 | -67.46358 | 29074 ft | 444 kts | 352° |
| 2026-05-07 18:24 | 22.98519 | -67.47612 | 29076 ft | 444 kts | 352° |
| 2026-05-07 18:25 | 23.04611 | -67.48872 | 29076 ft | 445 kts | 352° |
| 2026-05-07 18:25 | 23.10672 | -67.50123 | 29078 ft | 443 kts | 352° |
| 2026-05-07 18:26 | 23.16723 | -67.51376 | 29077 ft | 442 kts | 352° |
| 2026-05-07 18:26 | 23.22791 | -67.52630 | 29077 ft | 443 kts | 352° |
| 2026-05-07 18:27 | 23.28857 | -67.53887 | 29076 ft | 442 kts | 352° |
| 2026-05-07 18:27 | 23.34893 | -67.55138 | 29077 ft | 443 kts | 353° |
| 2026-05-07 18:28 | 23.40964 | -67.56397 | 29076 ft | 443 kts | 352° |
| 2026-05-07 18:28 | 23.47034 | -67.57658 | 29077 ft | 443 kts | 352° |
| 2026-05-07 18:29 | 23.53052 | -67.58909 | 29076 ft | 442 kts | 353° |
| 2026-05-07 18:29 | 23.59136 | -67.60176 | 29076 ft | 443 kts | 352° |
| 2026-05-07 18:30 | 23.65158 | -67.61430 | 29077 ft | 443 kts | 353° |
| 2026-05-07 18:30 | 23.71236 | -67.62701 | 29077 ft | 443 kts | 353° |
| 2026-05-07 18:31 | 23.77292 | -67.63963 | 29077 ft | 441 kts | 353° |
| 2026-05-07 18:31 | 23.83307 | -67.65220 | 29075 ft | 442 kts | 353° |
| 2026-05-07 18:32 | 23.89386 | -67.66491 | 29077 ft | 442 kts | 353° |
| 2026-05-07 18:32 | 23.95403 | -67.67749 | 29077 ft | 442 kts | 353° |
| 2026-05-07 18:33 | 24.01450 | -67.69016 | 29077 ft | 442 kts | 353° |
| 2026-05-07 18:33 | 24.07509 | -67.70285 | 29077 ft | 443 kts | 353° |
| 2026-05-07 18:34 | 24.13576 | -67.71558 | 29078 ft | 443 kts | 353° |
| 2026-05-07 18:34 | 24.19602 | -67.72823 | 29077 ft | 441 kts | 352° |
| 2026-05-07 18:35 | 24.25663 | -67.74098 | 29076 ft | 442 kts | 352° |
| 2026-05-07 18:35 | 24.31676 | -67.75365 | 29077 ft | 442 kts | 352° |
| 2026-05-07 18:36 | 24.37741 | -67.76641 | 29076 ft | 442 kts | 352° |
| 2026-05-07 18:36 | 24.43791 | -67.77917 | 29077 ft | 442 kts | 352° |
| 2026-05-07 18:37 | 24.49846 | -67.79195 | 29077 ft | 442 kts | 351° |
| 2026-05-07 18:37 | 24.55888 | -67.80475 | 29077 ft | 443 kts | 352° |
| 2026-05-07 18:38 | 24.61979 | -67.81761 | 29078 ft | 444 kts | 351° |
| 2026-05-07 18:38 | 24.68034 | -67.83044 | 29075 ft | 444 kts | 351° |
| 2026-05-07 18:39 | 24.74143 | -67.84340 | 29077 ft | 445 kts | 351° |
| 2026-05-07 18:39 | 24.80232 | -67.85629 | 29076 ft | 445 kts | 351° |
| 2026-05-07 18:40 | 24.86303 | -67.86917 | 29078 ft | 446 kts | 351° |
| 2026-05-07 18:40 | 24.92390 | -67.88213 | 29077 ft | 447 kts | 350° |
| 2026-05-07 18:41 | 24.98524 | -67.89518 | 29079 ft | 449 kts | 350° |
| 2026-05-07 18:41 | 25.04659 | -67.90829 | 29079 ft | 448 kts | 350° |
| 2026-05-07 18:42 | 25.10803 | -67.92138 | 29080 ft | 448 kts | 350° |
| 2026-05-07 18:42 | 25.16922 | -67.93443 | 29080 ft | 448 kts | 350° |
| 2026-05-07 18:43 | 25.23037 | -67.94750 | 29079 ft | 449 kts | 350° |
| 2026-05-07 18:43 | 25.29166 | -67.96060 | 29078 ft | 450 kts | 349° |
| 2026-05-07 18:44 | 25.35356 | -67.97386 | 29083 ft | 450 kts | 349° |
| 2026-05-07 18:44 | 25.41500 | -67.98702 | 29083 ft | 452 kts | 349° |
| 2026-05-07 18:45 | 25.47690 | -68.00033 | 29086 ft | 452 kts | 349° |
| 2026-05-07 18:45 | 25.53879 | -68.01363 | 29088 ft | 453 kts | 349° |
| 2026-05-07 18:46 | 25.60039 | -68.02688 | 29088 ft | 452 kts | 349° |
| 2026-05-07 18:46 | 25.66209 | -68.04015 | 29093 ft | 454 kts | 349° |
| 2026-05-07 18:47 | 25.72427 | -68.05353 | 29095 ft | 455 kts | 349° |
| 2026-05-07 18:47 | 25.75574 | -68.06032 | 29264 ft | 457 kts | 349° |
| 2026-05-07 18:47 | 25.78686 | -68.06702 | 29645 ft | 454 kts | 348° |
| 2026-05-07 18:47 | 25.81767 | -68.07368 | 30014 ft | 452 kts | 348° |
| 2026-05-07 18:48 | 25.84835 | -68.08031 | 30083 ft | 450 kts | 348° |
| 2026-05-07 18:48 | 25.91011 | -68.09367 | 30093 ft | 450 kts | 348° |
| 2026-05-07 18:49 | 25.97162 | -68.10699 | 30096 ft | 450 kts | 348° |
| 2026-05-07 18:49 | 26.03314 | -68.12033 | 30096 ft | 451 kts | 348° |
| 2026-05-07 18:50 | 26.09460 | -68.13367 | 30097 ft | 451 kts | 348° |
| 2026-05-07 18:50 | 26.15652 | -68.14713 | 30097 ft | 452 kts | 348° |
| 2026-05-07 18:51 | 26.21811 | -68.16049 | 30096 ft | 452 kts | 348° |
| 2026-05-07 18:51 | 26.27992 | -68.17394 | 30097 ft | 452 kts | 348° |
| 2026-05-07 18:52 | 26.34178 | -68.18742 | 30097 ft | 452 kts | 348° |
| 2026-05-07 18:52 | 26.40375 | -68.20093 | 30096 ft | 452 kts | 348° |
| 2026-05-07 18:53 | 26.46526 | -68.21436 | 30097 ft | 453 kts | 348° |
| 2026-05-07 18:53 | 26.52701 | -68.22785 | 30097 ft | 453 kts | 348° |
| 2026-05-07 18:54 | 26.58890 | -68.24139 | 30096 ft | 453 kts | 348° |
| 2026-05-07 18:54 | 26.65087 | -68.25496 | 30096 ft | 453 kts | 348° |
| 2026-05-07 18:55 | 26.71284 | -68.26856 | 30098 ft | 453 kts | 348° |
| 2026-05-07 18:55 | 26.77490 | -68.28218 | 30095 ft | 453 kts | 348° |
| 2026-05-07 18:56 | 26.83642 | -68.29569 | 30095 ft | 453 kts | 348° |
| 2026-05-07 18:56 | 26.89844 | -68.30933 | 30098 ft | 453 kts | 348° |
| 2026-05-07 18:57 | 26.96041 | -68.32297 | 30097 ft | 453 kts | 348° |
| 2026-05-07 18:57 | 27.02210 | -68.33657 | 30095 ft | 453 kts | 347° |
| 2026-05-07 18:58 | 27.08415 | -68.35027 | 30096 ft | 454 kts | 347° |
| 2026-05-07 18:58 | 27.14604 | -68.36397 | 30097 ft | 453 kts | 347° |
| 2026-05-07 18:59 | 27.20829 | -68.37774 | 30097 ft | 455 kts | 347° |
| 2026-05-07 18:59 | 27.27014 | -68.39143 | 30097 ft | 454 kts | 347° |
| 2026-05-07 19:00 | 27.33223 | -68.40518 | 30099 ft | 454 kts | 347° |
| 2026-05-07 19:00 | 27.39421 | -68.41895 | 30097 ft | 455 kts | 347° |
| 2026-05-07 19:01 | 27.45666 | -68.43284 | 30098 ft | 455 kts | 347° |
| 2026-05-07 19:01 | 27.51854 | -68.44659 | 30098 ft | 455 kts | 347° |
| 2026-05-07 19:02 | 27.58054 | -68.46040 | 30096 ft | 455 kts | 347° |
| 2026-05-07 19:02 | 27.64313 | -68.47437 | 30098 ft | 455 kts | 347° |
| 2026-05-07 19:03 | 27.70521 | -68.48824 | 30096 ft | 456 kts | 347° |
| 2026-05-07 19:03 | 27.76741 | -68.50214 | 30097 ft | 456 kts | 347° |
| 2026-05-07 19:04 | 27.82980 | -68.51609 | 30098 ft | 457 kts | 347° |
| 2026-05-07 19:04 | 27.89229 | -68.53009 | 30098 ft | 458 kts | 347° |
| 2026-05-07 19:05 | 27.95475 | -68.54410 | 30099 ft | 458 kts | 347° |
| 2026-05-07 19:05 | 28.01731 | -68.55816 | 30098 ft | 458 kts | 347° |
| 2026-05-07 19:06 | 28.07971 | -68.57219 | 30097 ft | 457 kts | 347° |
| 2026-05-07 19:06 | 28.17358 | -68.59332 | 30097 ft | 457 kts | 347° |
| 2026-05-07 19:07 | 28.23589 | -68.60740 | 30097 ft | 457 kts | 347° |
| 2026-05-07 19:07 | 28.29860 | -68.62156 | 30096 ft | 458 kts | 347° |
| 2026-05-07 19:08 | 28.36080 | -68.63562 | 30096 ft | 457 kts | 347° |
| 2026-05-07 19:08 | 28.42336 | -68.64977 | 30097 ft | 457 kts | 347° |
| 2026-05-07 19:09 | 28.48547 | -68.66385 | 30097 ft | 457 kts | 346° |
| 2026-05-07 19:09 | 28.54771 | -68.67795 | 30097 ft | 457 kts | 346° |
| 2026-05-07 19:10 | 28.61005 | -68.69212 | 30098 ft | 456 kts | 346° |
| 2026-05-07 19:10 | 28.67219 | -68.70625 | 30095 ft | 456 kts | 346° |
| 2026-05-07 19:11 | 28.73485 | -68.72053 | 30095 ft | 457 kts | 346° |
| 2026-05-07 19:11 | 28.79713 | -68.73471 | 30097 ft | 456 kts | 346° |
| 2026-05-07 19:12 | 28.85909 | -68.74887 | 30097 ft | 456 kts | 346° |
| 2026-05-07 19:12 | 28.92113 | -68.76307 | 30096 ft | 455 kts | 346° |
| 2026-05-07 19:13 | 28.98336 | -68.77729 | 30093 ft | 455 kts | 346° |
| 2026-05-07 19:13 | 29.04524 | -68.79147 | 30099 ft | 454 kts | 346° |
| 2026-05-07 19:14 | 29.10730 | -68.80570 | 30101 ft | 454 kts | 346° |
| 2026-05-07 19:14 | 29.16902 | -68.81988 | 30098 ft | 454 kts | 346° |
| 2026-05-07 19:15 | 29.23118 | -68.83419 | 30101 ft | 454 kts | 346° |
| 2026-05-07 19:15 | 29.29295 | -68.84841 | 30100 ft | 454 kts | 346° |
| 2026-05-07 19:16 | 29.35504 | -68.86272 | 30097 ft | 454 kts | 346° |
| 2026-05-07 19:16 | 29.41681 | -68.87697 | 30097 ft | 453 kts | 346° |
| 2026-05-07 19:17 | 29.47853 | -68.89124 | 30098 ft | 453 kts | 346° |
| 2026-05-07 19:17 | 29.54043 | -68.90555 | 30099 ft | 452 kts | 346° |
| 2026-05-07 19:18 | 29.60226 | -68.91989 | 30101 ft | 453 kts | 346° |
| 2026-05-07 19:18 | 29.66387 | -68.93417 | 30098 ft | 452 kts | 346° |
| 2026-05-07 19:19 | 29.72565 | -68.94852 | 30100 ft | 452 kts | 346° |
| 2026-05-07 19:19 | 29.78732 | -68.96287 | 30098 ft | 452 kts | 346° |
| 2026-05-07 19:20 | 29.84900 | -68.97724 | 30100 ft | 451 kts | 346° |
| 2026-05-07 19:20 | 29.91009 | -68.99148 | 30097 ft | 451 kts | 346° |
| 2026-05-07 19:21 | 29.97192 | -69.00590 | 30100 ft | 451 kts | 346° |
| 2026-05-07 19:21 | 30.03311 | -69.02020 | 30096 ft | 451 kts | 346° |
| 2026-05-07 19:22 | 30.09470 | -69.03462 | 30097 ft | 451 kts | 345° |
| 2026-05-07 19:22 | 30.15620 | -69.04903 | 30095 ft | 450 kts | 345° |
| 2026-05-07 19:23 | 30.21790 | -69.06352 | 30091 ft | 450 kts | 345° |
| 2026-05-07 19:23 | 30.27915 | -69.07790 | 30091 ft | 450 kts | 345° |
| 2026-05-07 19:24 | 30.34055 | -69.09235 | 30091 ft | 450 kts | 345° |
| 2026-05-07 19:24 | 30.40178 | -69.10676 | 30087 ft | 450 kts | 345° |
| 2026-05-07 19:25 | 30.46326 | -69.12127 | 30087 ft | 450 kts | 345° |
| 2026-05-07 19:25 | 30.52463 | -69.13576 | 30085 ft | 449 kts | 345° |
| 2026-05-07 19:26 | 30.58569 | -69.15018 | 30084 ft | 449 kts | 345° |
| 2026-05-07 19:26 | 30.64708 | -69.16470 | 30083 ft | 448 kts | 345° |
| 2026-05-07 19:27 | 30.70792 | -69.17911 | 30082 ft | 449 kts | 345° |
| 2026-05-07 19:27 | 30.76921 | -69.19368 | 30080 ft | 449 kts | 345° |
| 2026-05-07 19:28 | 30.83056 | -69.20825 | 30080 ft | 449 kts | 345° |
| 2026-05-07 19:28 | 30.89163 | -69.22277 | 30077 ft | 449 kts | 344° |
| 2026-05-07 19:29 | 30.95271 | -69.23735 | 30075 ft | 448 kts | 345° |
| 2026-05-07 19:29 | 31.01380 | -69.25191 | 30074 ft | 447 kts | 344° |
| 2026-05-07 19:30 | 31.07496 | -69.26654 | 30076 ft | 448 kts | 344° |
| 2026-05-07 19:30 | 31.13591 | -69.28110 | 30070 ft | 449 kts | 344° |
| 2026-05-07 19:31 | 31.19716 | -69.29578 | 30071 ft | 448 kts | 344° |
| 2026-05-07 19:31 | 31.25820 | -69.31044 | 30072 ft | 448 kts | 344° |
| 2026-05-07 19:32 | 31.31941 | -69.32514 | 30068 ft | 448 kts | 344° |
| 2026-05-07 19:32 | 31.38033 | -69.33978 | 30067 ft | 448 kts | 344° |
| 2026-05-07 19:33 | 31.44133 | -69.35450 | 30066 ft | 448 kts | 344° |
| 2026-05-07 19:33 | 31.50253 | -69.36924 | 30064 ft | 449 kts | 344° |
| 2026-05-07 19:34 | 31.56370 | -69.38400 | 30063 ft | 449 kts | 344° |
| 2026-05-07 19:34 | 31.62446 | -69.39867 | 30062 ft | 447 kts | 344° |
| 2026-05-07 19:35 | 31.68514 | -69.41338 | 30064 ft | 446 kts | 343° |
| 2026-05-07 19:35 | 31.74616 | -69.42820 | 30060 ft | 447 kts | 344° |
| 2026-05-07 19:36 | 31.80716 | -69.44300 | 30058 ft | 447 kts | 344° |
| 2026-05-07 19:36 | 31.86820 | -69.45784 | 30061 ft | 447 kts | 343° |
| 2026-05-07 19:37 | 31.92926 | -69.47272 | 30059 ft | 448 kts | 344° |
| 2026-05-07 19:37 | 31.98993 | -69.48749 | 30056 ft | 447 kts | 343° |
| 2026-05-07 19:38 | 32.05103 | -69.50243 | 30056 ft | 448 kts | 343° |
| 2026-05-07 19:38 | 32.11192 | -69.51730 | 30054 ft | 448 kts | 343° |
| 2026-05-07 19:39 | 32.17272 | -69.53220 | 30054 ft | 447 kts | 343° |
| 2026-05-07 19:39 | 32.23402 | -69.54720 | 30052 ft | 448 kts | 343° |
| 2026-05-07 19:40 | 32.29518 | -69.56222 | 30053 ft | 448 kts | 343° |
| 2026-05-07 19:40 | 32.35595 | -69.57713 | 30048 ft | 450 kts | 343° |
| 2026-05-07 19:41 | 32.41735 | -69.59224 | 30051 ft | 450 kts | 343° |
| 2026-05-07 19:41 | 32.47855 | -69.60729 | 30046 ft | 449 kts | 343° |
| 2026-05-07 19:42 | 32.53975 | -69.62241 | 30049 ft | 449 kts | 343° |
| 2026-05-07 19:42 | 32.60126 | -69.63760 | 30044 ft | 449 kts | 343° |
| 2026-05-07 19:43 | 32.66215 | -69.65267 | 30046 ft | 450 kts | 342° |
| 2026-05-07 19:43 | 32.72349 | -69.66788 | 30041 ft | 450 kts | 342° |
| 2026-05-07 19:44 | 32.78489 | -69.68312 | 30043 ft | 450 kts | 342° |
| 2026-05-07 19:44 | 32.84593 | -69.69827 | 30039 ft | 450 kts | 342° |
| 2026-05-07 19:45 | 32.90729 | -69.71354 | 30036 ft | 450 kts | 342° |
| 2026-05-07 19:45 | 32.96847 | -69.72877 | 30036 ft | 452 kts | 342° |
| 2026-05-07 19:46 | 33.02985 | -69.74409 | 30037 ft | 450 kts | 342° |
| 2026-05-07 19:46 | 33.09147 | -69.75948 | 30037 ft | 450 kts | 342° |
| 2026-05-07 19:47 | 33.15245 | -69.77473 | 30031 ft | 450 kts | 342° |
| 2026-05-07 19:47 | 33.21410 | -69.79018 | 30030 ft | 451 kts | 342° |
| 2026-05-07 19:48 | 33.27542 | -69.80559 | 30029 ft | 452 kts | 342° |
| 2026-05-07 19:48 | 33.33680 | -69.82098 | 30020 ft | 451 kts | 342° |
| 2026-05-07 19:49 | 33.39821 | -69.83646 | 30024 ft | 451 kts | 342° |
| 2026-05-07 19:49 | 33.45978 | -69.85200 | 30021 ft | 452 kts | 342° |
| 2026-05-07 19:50 | 33.52111 | -69.86747 | 30016 ft | 451 kts | 342° |
| 2026-05-07 19:50 | 33.58242 | -69.88299 | 30016 ft | 452 kts | 342° |
| 2026-05-07 19:51 | 33.64405 | -69.89859 | 30016 ft | 453 kts | 342° |
| 2026-05-07 19:51 | 33.70565 | -69.91420 | 30010 ft | 451 kts | 342° |
| 2026-05-07 19:52 | 33.76699 | -69.92980 | 30006 ft | 453 kts | 342° |
| 2026-05-07 19:52 | 33.82867 | -69.94548 | 30006 ft | 452 kts | 342° |
| 2026-05-07 19:53 | 33.88989 | -69.96108 | 29999 ft | 452 kts | 342° |
| 2026-05-07 19:53 | 33.95154 | -69.97680 | 29995 ft | 452 kts | 342° |
| 2026-05-07 19:54 | 34.01326 | -69.99255 | 29996 ft | 452 kts | 342° |
| 2026-05-07 19:54 | 34.07451 | -70.00823 | 29998 ft | 452 kts | 342° |
| 2026-05-07 19:55 | 34.13621 | -70.02404 | 29989 ft | 453 kts | 342° |
| 2026-05-07 19:55 | 34.19801 | -70.03996 | 29984 ft | 454 kts | 342° |
| 2026-05-07 19:56 | 34.25992 | -70.05587 | 29980 ft | 455 kts | 342° |
| 2026-05-07 19:56 | 34.32196 | -70.07182 | 29981 ft | 454 kts | 342° |
| 2026-05-07 19:57 | 34.38355 | -70.08772 | 29980 ft | 456 kts | 342° |
| 2026-05-07 19:57 | 34.44561 | -70.10375 | 29973 ft | 456 kts | 342° |
| 2026-05-07 19:58 | 34.50753 | -70.11974 | 29968 ft | 456 kts | 342° |
| 2026-05-07 19:58 | 34.56991 | -70.13590 | 29961 ft | 457 kts | 342° |
| 2026-05-07 19:59 | 34.63185 | -70.15198 | 29954 ft | 456 kts | 342° |
| 2026-05-07 19:59 | 34.69417 | -70.16816 | 29955 ft | 457 kts | 342° |
| 2026-05-07 20:00 | 34.75628 | -70.18431 | 29958 ft | 457 kts | 342° |
| 2026-05-07 20:00 | 34.81827 | -70.20048 | 29956 ft | 457 kts | 342° |
| 2026-05-07 20:01 | 34.88062 | -70.21676 | 29951 ft | 458 kts | 342° |
| 2026-05-07 20:01 | 34.94277 | -70.23303 | 29953 ft | 458 kts | 342° |
| 2026-05-07 20:02 | 35.00503 | -70.24933 | 29952 ft | 459 kts | 342° |
| 2026-05-07 20:02 | 35.06707 | -70.26559 | 29947 ft | 458 kts | 341° |
| 2026-05-07 20:03 | 35.12960 | -70.28197 | 29941 ft | 459 kts | 341° |
| 2026-05-07 20:03 | 35.19226 | -70.29848 | 29934 ft | 459 kts | 341° |
| 2026-05-07 20:04 | 35.25412 | -70.31478 | 29934 ft | 458 kts | 342° |
| 2026-05-07 20:04 | 35.31643 | -70.33119 | 29933 ft | 457 kts | 341° |
| 2026-05-07 20:05 | 35.37891 | -70.34770 | 29925 ft | 460 kts | 341° |
| 2026-05-07 20:05 | 35.44147 | -70.36427 | 29916 ft | 460 kts | 341° |
| 2026-05-07 20:06 | 35.50356 | -70.38070 | 29909 ft | 459 kts | 341° |
| 2026-05-07 20:06 | 35.56614 | -70.39732 | 29903 ft | 458 kts | 341° |
| 2026-05-07 20:07 | 35.62826 | -70.41384 | 29899 ft | 458 kts | 340° |
| 2026-05-07 20:07 | 35.69058 | -70.43048 | 29902 ft | 459 kts | 341° |
| 2026-05-07 20:08 | 35.75287 | -70.44704 | 29896 ft | 458 kts | 340° |
| 2026-05-07 20:08 | 35.81491 | -70.46360 | 29890 ft | 458 kts | 340° |
| 2026-05-07 20:09 | 35.87746 | -70.48038 | 29886 ft | 460 kts | 340° |
| 2026-05-07 20:10 | 35.97086 | -70.50545 | 29890 ft | 459 kts | 340° |
| 2026-05-07 20:10 | 36.03349 | -70.52227 | 29881 ft | 460 kts | 340° |
| 2026-05-07 20:11 | 36.09580 | -70.53904 | 29878 ft | 460 kts | 340° |
| 2026-05-07 20:11 | 36.15834 | -70.55594 | 29871 ft | 461 kts | 340° |
| 2026-05-07 20:12 | 36.22089 | -70.57282 | 29863 ft | 462 kts | 340° |
| 2026-05-07 20:12 | 36.28363 | -70.58978 | 29864 ft | 462 kts | 340° |
| 2026-05-07 20:13 | 36.34650 | -70.60682 | 29856 ft | 464 kts | 340° |
| 2026-05-07 20:13 | 36.40935 | -70.62392 | 29854 ft | 464 kts | 340° |
| 2026-05-07 20:14 | 36.47246 | -70.64106 | 29850 ft | 465 kts | 340° |
| 2026-05-07 20:14 | 36.53562 | -70.65826 | 29855 ft | 464 kts | 339° |
| 2026-05-07 20:15 | 36.59880 | -70.67550 | 29852 ft | 465 kts | 339° |
| 2026-05-07 20:15 | 36.66166 | -70.69267 | 29843 ft | 467 kts | 339° |
| 2026-05-07 20:16 | 36.72498 | -70.70998 | 29838 ft | 467 kts | 339° |
| 2026-05-07 20:16 | 36.78855 | -70.72742 | 29827 ft | 471 kts | 339° |
| 2026-05-07 20:17 | 36.85237 | -70.74495 | 29833 ft | 470 kts | 339° |
| 2026-05-07 20:17 | 36.91629 | -70.76255 | 29832 ft | 472 kts | 339° |
| 2026-05-07 20:18 | 36.98052 | -70.78024 | 29834 ft | 474 kts | 339° |
| 2026-05-07 20:18 | 37.04481 | -70.79799 | 29834 ft | 475 kts | 339° |
| 2026-05-07 20:19 | 37.10925 | -70.81580 | 29828 ft | 475 kts | 339° |
| 2026-05-07 20:19 | 37.17421 | -70.83382 | 29828 ft | 477 kts | 339° |
| 2026-05-07 20:20 | 37.23886 | -70.85171 | 29836 ft | 478 kts | 339° |
| 2026-05-07 20:20 | 37.30366 | -70.86974 | 29835 ft | 477 kts | 339° |
| 2026-05-07 20:21 | 37.36741 | -70.88751 | 29843 ft | 480 kts | 339° |
| 2026-05-07 20:21 | 37.43260 | -70.90570 | 29836 ft | 483 kts | 339° |
| 2026-05-07 20:22 | 37.49813 | -70.92396 | 29835 ft | 481 kts | 338° |
| 2026-05-07 20:22 | 37.56376 | -70.94235 | 29827 ft | 485 kts | 339° |
| 2026-05-07 20:23 | 37.62950 | -70.96077 | 29823 ft | 487 kts | 339° |
| 2026-05-07 20:23 | 37.69202 | -70.98747 | 29820 ft | 470 kts | 323° |
| 2026-05-07 20:23 | 37.71914 | -71.00960 | 29823 ft | 457 kts | 313° |
| 2026-05-07 20:24 | 37.74215 | -71.03612 | 29827 ft | 447 kts | 304° |
| 2026-05-07 20:24 | 37.78006 | -71.09739 | 29830 ft | 442 kts | 298° |
| 2026-05-07 20:25 | 37.81671 | -71.15990 | 29823 ft | 442 kts | 298° |
| 2026-05-07 20:25 | 37.85322 | -71.22187 | 29831 ft | 442 kts | 298° |
| 2026-05-07 20:26 | 37.88983 | -71.28385 | 29833 ft | 440 kts | 298° |
| 2026-05-07 20:26 | 37.92616 | -71.34548 | 29834 ft | 441 kts | 297° |
| 2026-05-07 20:27 | 37.96283 | -71.40776 | 29835 ft | 436 kts | 298° |
| 2026-05-07 20:27 | 37.99903 | -71.46928 | 29838 ft | 435 kts | 297° |
| 2026-05-07 20:28 | 38.03506 | -71.53068 | 29842 ft | 435 kts | 298° |
| 2026-05-07 20:28 | 38.07106 | -71.59208 | 29847 ft | 436 kts | 298° |
| 2026-05-07 20:29 | 38.10687 | -71.65329 | 29857 ft | 430 kts | 297° |
| 2026-05-07 20:29 | 38.14218 | -71.71382 | 29862 ft | 429 kts | 297° |
| 2026-05-07 20:30 | 38.17748 | -71.77434 | 29870 ft | 427 kts | 296° |
| 2026-05-07 20:30 | 38.21262 | -71.83483 | 29871 ft | 428 kts | 296° |
| 2026-05-07 20:31 | 38.24977 | -71.89416 | 29867 ft | 439 kts | 306° |
| 2026-05-07 20:31 | 38.27403 | -71.91882 | 29869 ft | 454 kts | 316° |
| 2026-05-07 20:31 | 38.30234 | -71.93789 | 29881 ft | 473 kts | 327° |
| 2026-05-07 20:31 | 38.33460 | -71.95026 | 29872 ft | 492 kts | 339° |
| 2026-05-07 20:32 | 38.36906 | -71.95435 | 29882 ft | 508 kts | 349° |
| 2026-05-07 20:32 | 38.43975 | -71.95326 | 29877 ft | 509 kts | 352° |
| 2026-05-07 20:33 | 38.51026 | -71.95154 | 29876 ft | 511 kts | 352° |
| 2026-05-07 20:33 | 38.58161 | -71.95055 | 29876 ft | 514 kts | 352° |
| 2026-05-07 20:34 | 38.65315 | -71.94976 | 29872 ft | 516 kts | 352° |
| 2026-05-07 20:34 | 38.72462 | -71.94881 | 29873 ft | 516 kts | 352° |
| 2026-05-07 20:35 | 38.79628 | -71.94781 | 29872 ft | 514 kts | 353° |
| 2026-05-07 20:35 | 38.86792 | -71.94689 | 29872 ft | 516 kts | 353° |
| 2026-05-07 20:36 | 38.94004 | -71.94740 | 29867 ft | 514 kts | 346° |
| 2026-05-07 20:36 | 38.97443 | -71.95543 | 29869 ft | 499 kts | 335° |
| 2026-05-07 20:36 | 39.00635 | -71.97081 | 29869 ft | 483 kts | 324° |
| 2026-05-07 20:36 | 39.03477 | -71.99247 | 29873 ft | 471 kts | 314° |
| 2026-05-07 20:37 | 39.06003 | -72.01798 | 29873 ft | 461 kts | 309° |
| 2026-05-07 20:37 | 39.10884 | -72.07078 | 29863 ft | 459 kts | 308° |
| 2026-05-07 20:38 | 39.15852 | -72.12361 | 29856 ft | 464 kts | 309° |
| 2026-05-07 20:38 | 39.20824 | -72.17578 | 29860 ft | 459 kts | 308° |
| 2026-05-07 20:39 | 39.25760 | -72.22770 | 29868 ft | 461 kts | 308° |
| 2026-05-07 20:39 | 39.30695 | -72.27967 | 29878 ft | 458 kts | 308° |
| 2026-05-07 20:40 | 39.35623 | -72.33174 | 29871 ft | 453 kts | 308° |
| 2026-05-07 20:40 | 39.40463 | -72.38296 | 29874 ft | 453 kts | 307° |
| 2026-05-07 20:41 | 39.45307 | -72.43441 | 29949 ft | 455 kts | 307° |
| 2026-05-07 20:41 | 39.47744 | -72.46034 | 30310 ft | 452 kts | 307° |
| 2026-05-07 20:41 | 39.50151 | -72.48580 | 30766 ft | 445 kts | 307° |
| 2026-05-07 20:41 | 39.52551 | -72.51129 | 30872 ft | 442 kts | 307° |
| 2026-05-07 20:42 | 39.54902 | -72.53632 | 30876 ft | 440 kts | 307° |
| 2026-05-07 20:42 | 39.59580 | -72.58631 | 30876 ft | 437 kts | 307° |
| 2026-05-07 20:43 | 39.64268 | -72.63644 | 30881 ft | 436 kts | 306° |
| 2026-05-07 20:43 | 39.68915 | -72.68617 | 30885 ft | 433 kts | 305° |
| 2026-05-07 20:44 | 39.73529 | -72.73571 | 30886 ft | 432 kts | 305° |
| 2026-05-07 20:44 | 39.78160 | -72.78532 | 30888 ft | 432 kts | 306° |
| 2026-05-07 20:45 | 39.83113 | -72.83164 | 30902 ft | 443 kts | 311° |
| 2026-05-07 20:45 | 39.88501 | -72.87209 | 30898 ft | 454 kts | 316° |
| 2026-05-07 20:46 | 39.94107 | -72.90968 | 30897 ft | 452 kts | 317° |
| 2026-05-07 20:46 | 39.99703 | -72.94707 | 30891 ft | 451 kts | 317° |
| 2026-05-07 20:47 | 40.05273 | -72.98449 | 30873 ft | 451 kts | 317° |
| 2026-05-07 20:47 | 40.10827 | -73.02196 | 30877 ft | 451 kts | 317° |
| 2026-05-07 20:48 | 40.16437 | -73.05857 | 30868 ft | 466 kts | 323° |
| 2026-05-07 20:48 | 40.19623 | -73.07068 | 30857 ft | 489 kts | 334° |
| 2026-05-07 20:48 | 40.23094 | -73.07491 | 30876 ft | 515 kts | 347° |
| 2026-05-07 20:48 | 40.26736 | -73.06985 | 30862 ft | 540 kts | 1° |
| 2026-05-07 20:49 | 40.30365 | -73.05427 | 30864 ft | 561 kts | 15° |
| 2026-05-07 20:49 | 40.33771 | -73.02777 | 30856 ft | 578 kts | 31° |
| 2026-05-07 20:49 | 40.36771 | -72.99335 | 30867 ft | 582 kts | 39° |
| 2026-05-07 20:50 | 40.42547 | -72.91925 | 30863 ft | 583 kts | 40° |
| 2026-05-07 20:50 | 40.48399 | -72.84519 | 30854 ft | 583 kts | 39° |
| 2026-05-07 20:51 | 40.54281 | -72.77264 | 30865 ft | 582 kts | 38° |
| 2026-05-07 20:51 | 40.60199 | -72.70016 | 30845 ft | 583 kts | 39° |
| 2026-05-07 20:52 | 40.66100 | -72.62772 | 30860 ft | 583 kts | 38° |
| 2026-05-07 20:52 | 40.72018 | -72.55471 | 30850 ft | 583 kts | 38° |
| 2026-05-07 20:53 | 40.77909 | -72.48186 | 30849 ft | 584 kts | 39° |
| 2026-05-07 20:53 | 40.80884 | -72.44496 | 30704 ft | 581 kts | 38° |
| 2026-05-07 20:53 | 40.83810 | -72.40857 | 30007 ft | 583 kts | 38° |
| 2026-05-07 20:53 | 40.86764 | -72.37190 | 28867 ft | 591 kts | 39° |
| 2026-05-07 20:54 | 40.89754 | -72.33510 | 27858 ft | 594 kts | 38° |
| 2026-05-07 20:54 | 40.92916 | -72.29976 | 27027 ft | 590 kts | 33° |
| 2026-05-07 20:54 | 40.96123 | -72.26804 | 26499 ft | 579 kts | 30° |
| 2026-05-07 20:54 | 40.99405 | -72.23706 | 25969 ft | 570 kts | 29° |
| 2026-05-07 20:55 | 41.02602 | -72.20734 | 25436 ft | 563 kts | 29° |
| 2026-05-07 20:55 | 41.05780 | -72.17783 | 24903 ft | 555 kts | 29° |
| 2026-05-07 20:55 | 41.08897 | -72.14874 | 24323 ft | 550 kts | 29° |
| 2026-05-07 20:55 | 41.12007 | -72.11951 | 23751 ft | 543 kts | 30° |
| 2026-05-07 20:56 | 41.15036 | -72.09100 | 23205 ft | 537 kts | 30° |
| 2026-05-07 20:56 | 41.18050 | -72.06246 | 22671 ft | 530 kts | 29° |
| 2026-05-07 20:56 | 41.21041 | -72.03409 | 22156 ft | 522 kts | 29° |
| 2026-05-07 20:56 | 41.23964 | -72.00633 | 21588 ft | 516 kts | 30° |
| 2026-05-07 20:57 | 41.26872 | -71.97871 | 21072 ft | 509 kts | 30° |
| 2026-05-07 20:57 | 41.29708 | -71.95171 | 20545 ft | 503 kts | 30° |
| 2026-05-07 20:57 | 41.32539 | -71.92478 | 20004 ft | 496 kts | 30° |
| 2026-05-07 20:57 | 41.35298 | -71.89842 | 19485 ft | 490 kts | 30° |
| 2026-05-07 20:58 | 41.38055 | -71.87212 | 18941 ft | 484 kts | 30° |
| 2026-05-07 20:58 | 41.40762 | -71.84624 | 18441 ft | 477 kts | 31° |
| 2026-05-07 20:58 | 41.43440 | -71.82065 | 17895 ft | 472 kts | 31° |
| 2026-05-07 20:58 | 41.46096 | -71.79523 | 17318 ft | 467 kts | 31° |
| 2026-05-07 20:59 | 41.48688 | -71.77035 | 16800 ft | 462 kts | 31° |
| 2026-05-07 20:59 | 41.51280 | -71.74545 | 16257 ft | 457 kts | 31° |
| 2026-05-07 20:59 | 41.53860 | -71.72062 | 15724 ft | 453 kts | 31° |
| 2026-05-07 20:59 | 41.56374 | -71.69640 | 15189 ft | 448 kts | 31° |
| 2026-05-07 21:00 | 41.58876 | -71.67230 | 14683 ft | 442 kts | 31° |
| 2026-05-07 21:00 | 41.61360 | -71.64839 | 14103 ft | 437 kts | 31° |
| 2026-05-07 21:00 | 41.63809 | -71.62476 | 13607 ft | 432 kts | 31° |
| 2026-05-07 21:00 | 41.66213 | -71.60095 | 13064 ft | 430 kts | 35° |
| 2026-05-07 21:01 | 41.68186 | -71.57171 | 12556 ft | 432 kts | 53° |
| 2026-05-07 21:01 | 41.69542 | -71.53595 | 12160 ft | 426 kts | 66° |
| 2026-05-07 21:01 | 41.70556 | -71.49972 | 12053 ft | 410 kts | 69° |
| 2026-05-07 21:01 | 41.71518 | -71.46382 | 12039 ft | 408 kts | 69° |
| 2026-05-07 21:02 | 41.72605 | -71.42900 | 12032 ft | 407 kts | 63° |
| 2026-05-07 21:02 | 41.73902 | -71.39539 | 12027 ft | 404 kts | 58° |
| 2026-05-07 21:02 | 41.75285 | -71.36298 | 12017 ft | 404 kts | 57° |
| 2026-05-07 21:02 | 41.76707 | -71.33031 | 12018 ft | 405 kts | 58° |
| 2026-05-07 21:03 | 41.78108 | -71.29788 | 11999 ft | 403 kts | 58° |
| 2026-05-07 21:03 | 41.79483 | -71.26573 | 11888 ft | 390 kts | 58° |
| 2026-05-07 21:03 | 41.80799 | -71.23492 | 11617 ft | 381 kts | 58° |
| 2026-05-07 21:03 | 41.82103 | -71.20428 | 11358 ft | 371 kts | 58° |
| 2026-05-07 21:04 | 41.83357 | -71.17474 | 11189 ft | 359 kts | 58° |
| 2026-05-07 21:04 | 41.84567 | -71.14623 | 11042 ft | 347 kts | 57° |
| 2026-05-07 21:04 | 41.85732 | -71.11874 | 11022 ft | 332 kts | 57° |
| 2026-05-07 21:04 | 41.86886 | -71.09203 | 11024 ft | 334 kts | 57° |
| 2026-05-07 21:05 | 41.88043 | -71.06540 | 11024 ft | 333 kts | 57° |
| 2026-05-07 21:05 | 41.89208 | -71.03857 | 11021 ft | 333 kts | 57° |
| 2026-05-07 21:05 | 41.90367 | -71.01179 | 11025 ft | 333 kts | 57° |
| 2026-05-07 21:05 | 41.91539 | -70.98463 | 11021 ft | 332 kts | 57° |
| 2026-05-07 21:06 | 41.92687 | -70.95796 | 11018 ft | 333 kts | 57° |
| 2026-05-07 21:06 | 41.93837 | -70.93121 | 11022 ft | 333 kts | 57° |
| 2026-05-07 21:06 | 41.95004 | -70.90403 | 11018 ft | 332 kts | 57° |
| 2026-05-07 21:06 | 41.96146 | -70.87745 | 11023 ft | 333 kts | 57° |
| 2026-05-07 21:07 | 41.97309 | -70.85036 | 11021 ft | 332 kts | 57° |
| 2026-05-07 21:07 | 41.98448 | -70.82371 | 10904 ft | 333 kts | 58° |
| 2026-05-07 21:07 | 41.99598 | -70.79691 | 10506 ft | 333 kts | 57° |
| 2026-05-07 21:07 | 42.00789 | -70.77034 | 10105 ft | 331 kts | 52° |
| 2026-05-07 21:08 | 42.02170 | -70.74593 | 9903 ft | 319 kts | 45° |
| 2026-05-07 21:08 | 42.03611 | -70.72396 | 9763 ft | 311 kts | 44° |
| 2026-05-07 21:08 | 42.05068 | -70.70248 | 9411 ft | 310 kts | 43° |
| 2026-05-07 21:08 | 42.06499 | -70.68139 | 9068 ft | 308 kts | 44° |
| 2026-05-07 21:09 | 42.07943 | -70.65994 | 8719 ft | 306 kts | 44° |
| 2026-05-07 21:09 | 42.09345 | -70.63894 | 8374 ft | 303 kts | 44° |
| 2026-05-07 21:09 | 42.10878 | -70.62013 | 8007 ft | 295 kts | 26° |
| 2026-05-07 21:09 | 42.12749 | -70.61102 | 7890 ft | 279 kts | 5° |
| 2026-05-07 21:10 | 42.14652 | -70.60699 | 7816 ft | 279 kts | 3° |
| 2026-05-07 21:10 | 42.16584 | -70.60334 | 7472 ft | 278 kts | 3° |
| 2026-05-07 21:10 | 42.18476 | -70.59963 | 7147 ft | 276 kts | 3° |
| 2026-05-07 21:10 | 42.20363 | -70.59586 | 6816 ft | 274 kts | 4° |
| 2026-05-07 21:11 | 42.22235 | -70.59199 | 6481 ft | 271 kts | 5° |
| 2026-05-07 21:11 | 42.24093 | -70.58808 | 6134 ft | 268 kts | 5° |
| 2026-05-07 21:11 | 42.27739 | -70.58029 | 5463 ft | 262 kts | 6° |
| 2026-05-07 21:12 | 42.29512 | -70.57650 | 5156 ft | 260 kts | 5° |
| 2026-05-07 21:12 | 42.31275 | -70.57267 | 5032 ft | 248 kts | 5° |
| 2026-05-07 21:12 | 42.32931 | -70.56911 | 5012 ft | 233 kts | 5° |
| 2026-05-07 21:12 | 42.34488 | -70.56573 | 5013 ft | 225 kts | 5° |
| 2026-05-07 21:13 | 42.36025 | -70.56135 | 5013 ft | 227 kts | 11° |
| 2026-05-07 21:13 | 42.37489 | -70.55492 | 5011 ft | 214 kts | 14° |
| 2026-05-07 21:13 | 42.38894 | -70.54885 | 4935 ft | 210 kts | 12° |
| 2026-05-07 21:13 | 42.40299 | -70.54357 | 4525 ft | 213 kts | 4° |
| 2026-05-07 21:14 | 42.41734 | -70.54627 | 4119 ft | 207 kts | 328° |
| 2026-05-07 21:14 | 42.42676 | -70.55940 | 4004 ft | 192 kts | 292° |
| 2026-05-07 21:14 | 42.42926 | -70.57634 | 3992 ft | 178 kts | 273° |
| 2026-05-07 21:14 | 42.42832 | -70.59283 | 4006 ft | 175 kts | 264° |
| 2026-05-07 21:15 | 42.42636 | -70.60915 | 3998 ft | 177 kts | 263° |
| 2026-05-07 21:15 | 42.42413 | -70.62556 | 4004 ft | 179 kts | 262° |
| 2026-05-07 21:15 | 42.42166 | -70.64196 | 3993 ft | 177 kts | 262° |
| 2026-05-07 21:15 | 42.41903 | -70.65820 | 3992 ft | 178 kts | 261° |
| 2026-05-07 21:16 | 42.41625 | -70.67458 | 4064 ft | 178 kts | 261° |
| 2026-05-07 21:16 | 42.41339 | -70.69087 | 4062 ft | 179 kts | 260° |
| 2026-05-07 21:16 | 42.41042 | -70.70737 | 4044 ft | 179 kts | 260° |
| 2026-05-07 21:16 | 42.40756 | -70.72308 | 3865 ft | 166 kts | 261° |
| 2026-05-07 21:17 | 42.40486 | -70.73773 | 3628 ft | 155 kts | 260° |
| 2026-05-07 21:17 | 42.40236 | -70.75133 | 3442 ft | 145 kts | 261° |
| 2026-05-07 21:17 | 42.39997 | -70.76461 | 3263 ft | 146 kts | 262° |
| 2026-05-07 21:17 | 42.39758 | -70.77804 | 3074 ft | 146 kts | 261° |
| 2026-05-07 21:18 | 42.39521 | -70.79120 | 2887 ft | 145 kts | 261° |
| 2026-05-07 21:18 | 42.39285 | -70.80432 | 2699 ft | 143 kts | 262° |
| 2026-05-07 21:18 | 42.39051 | -70.81740 | 2506 ft | 142 kts | 261° |
| 2026-05-07 21:18 | 42.38818 | -70.83038 | 2317 ft | 142 kts | 261° |
| 2026-05-07 21:19 | 42.38586 | -70.84332 | 2132 ft | 141 kts | 262° |
| 2026-05-07 21:19 | 42.38358 | -70.85620 | 1949 ft | 142 kts | 261° |
| 2026-05-07 21:19 | 42.38126 | -70.86916 | 1764 ft | 141 kts | 262° |
| 2026-05-07 21:19 | 42.37895 | -70.88205 | 1573 ft | 141 kts | 262° |
| 2026-05-07 21:20 | 42.37667 | -70.89483 | 1390 ft | 140 kts | 262° |
| 2026-05-07 21:20 | 42.37440 | -70.90750 | 1208 ft | 139 kts | 261° |
| 2026-05-07 21:20 | 42.37213 | -70.92027 | 1021 ft | 139 kts | 261° |
| 2026-05-07 21:20 | 42.36989 | -70.93284 | 842 ft | 134 kts | 261° |
| 2026-05-07 21:21 | 42.36778 | -70.94465 | 646 ft | 130 kts | 260° |
| 2026-05-07 21:21 | 42.36549 | -70.95637 | 470 ft | 129 kts | 261° |
| 2026-05-07 21:21 | 42.36350 | -70.96824 | 315 ft | 129 kts | 261° |
| 2026-05-07 21:21 | 42.36147 | -70.97987 | 167 ft | 127 kts | 261° |
| 2026-05-07 21:22 | 42.35950 | -70.99154 | 14 ft | 124 kts | 261° |
| 2026-05-07 21:22 | 42.35821 | -70.99936 | 13 ft | 59 kts | 255° |
| 2026-05-07 21:22 | 42.35748 | -71.00366 | 15 ft | 27 kts | 270° |
| 2026-05-07 21:22 | 42.35772 | -71.00601 | 16 ft | 22 kts | 278° |
| 2026-05-07 21:23 | 42.35798 | -71.00794 | 19 ft | 19 kts | 294° |
| 2026-05-07 21:23 | 42.35819 | -71.00962 | 19 ft | 17 kts | 278° |
| 2026-05-07 21:23 | 42.35829 | -71.01129 | 19 ft | 17 kts | 277° |
| 2026-05-07 21:23 | 42.35858 | -71.01317 | 22 ft | 20 kts | 287° |
| 2026-05-07 21:24 | 42.35882 | -71.01495 | 22 ft | 16 kts | 289° |
| 2026-05-07 21:24 | 42.35915 | -71.01621 | 20 ft | 14 kts | 351° |
| 2026-05-07 21:24 | 42.36034 | -71.01578 | 19 ft | 18 kts | 18° |
| 2026-05-07 21:24 | 42.36154 | -71.01527 | 19 ft | 16 kts | 21° |
| 2026-05-07 21:25 | 42.36222 | -71.01547 | 19 ft | 10 kts | 286° |
| 2026-05-07 21:25 | 42.36275 | -71.01608 | 17 ft | 5 kts | 339° |
| 2026-05-07 21:25 | 42.36291 | -71.01616 | 17 ft | 0 kts | 337° |